createdAt,value
2022-08-02T00:00:44.848Z,18.30
2022-08-02T00:03:13.252Z,18.30
2022-08-02T00:05:41.444Z,18.20
2022-08-02T00:08:12.256Z,18.20
2022-08-02T00:10:40.320Z,18.20
2022-08-02T00:13:10.191Z,18.20
2022-08-02T00:15:38.276Z,18.30
2022-08-02T00:18:06.398Z,18.20
2022-08-02T00:20:34.509Z,18.20
2022-08-02T00:23:02.595Z,18.20
2022-08-02T00:25:31.914Z,18.20
2022-08-02T00:28:02.080Z,18.20
2022-08-02T00:30:30.355Z,18.10
2022-08-02T00:32:58.481Z,18.10
2022-08-02T00:35:26.724Z,18.00
2022-08-02T00:37:57.416Z,17.90
2022-08-02T00:40:28.562Z,17.80
2022-08-02T00:43:06.774Z,17.80
2022-08-02T00:46:01.953Z,17.80
2022-08-02T00:48:23.781Z,17.80
2022-08-02T00:50:51.919Z,17.80
2022-08-02T00:53:19.937Z,17.80
2022-08-02T00:55:48.183Z,17.80
2022-08-02T00:58:18.488Z,17.90
2022-08-02T01:00:46.722Z,17.90
2022-08-02T01:03:14.751Z,17.90
2022-08-02T01:06:10.096Z,17.80
2022-08-02T01:08:33.322Z,17.80
2022-08-02T01:11:01.467Z,17.70
2022-08-02T01:13:33.129Z,17.60
2022-08-02T01:16:10.025Z,17.50
2022-08-02T01:18:42.813Z,17.40
2022-08-02T01:21:39.225Z,17.40
2022-08-02T01:24:22.609Z,17.40
2022-08-02T01:26:56.121Z,17.40
2022-08-02T01:29:31.428Z,17.40
2022-08-02T01:32:07.306Z,17.40
2022-08-02T01:34:41.215Z,17.40
2022-08-02T01:37:15.265Z,17.40
2022-08-02T01:39:45.477Z,17.30
2022-08-02T01:42:15.093Z,17.30
2022-08-02T01:44:46.767Z,17.30
2022-08-02T01:47:19.325Z,17.30
2022-08-02T01:49:51.523Z,17.20
2022-08-02T01:52:22.821Z,17.20
2022-08-02T01:54:58.019Z,17.20
2022-08-02T01:57:28.560Z,17.20
2022-08-02T02:00:01.503Z,17.20
2022-08-02T02:02:33.477Z,17.20
2022-08-02T02:05:03.898Z,17.20
2022-08-02T02:07:34.684Z,17.20
2022-08-02T02:10:04.539Z,17.10
2022-08-02T02:12:34.829Z,17.10
2022-08-02T02:15:05.731Z,17.00
2022-08-02T02:17:50.509Z,17.00
2022-08-02T02:20:23.509Z,17.00
2022-08-02T02:22:52.330Z,16.90
2022-08-02T02:25:24.942Z,16.80
2022-08-02T02:28:07.971Z,16.80
2022-08-02T02:30:40.911Z,16.70
2022-08-02T02:33:10.591Z,16.70
2022-08-02T02:35:39.313Z,16.70
2022-08-02T02:38:12.971Z,16.70
2022-08-02T02:40:42.994Z,16.60
2022-08-02T02:43:13.887Z,16.60
2022-08-02T02:45:44.617Z,16.70
2022-08-02T02:48:14.951Z,16.70
2022-08-02T02:50:43.990Z,16.70
2022-08-02T02:53:14.314Z,16.70
2022-08-02T02:56:02.646Z,16.60
2022-08-02T02:58:32.205Z,16.60
2022-08-02T03:01:19.907Z,16.60
2022-08-02T03:03:48.393Z,16.60
2022-08-02T03:06:16.568Z,16.60
2022-08-02T03:08:45.056Z,16.50
2022-08-02T03:11:16.512Z,16.50
2022-08-02T03:13:47.581Z,16.40
2022-08-02T03:16:17.139Z,16.50
2022-08-02T03:18:45.762Z,16.50
2022-08-02T03:21:15.163Z,16.50
2022-08-02T03:23:44.630Z,16.40
2022-08-02T03:26:12.774Z,16.40
2022-08-02T03:28:41.253Z,16.30
2022-08-02T03:31:09.439Z,16.20
2022-08-02T03:33:39.857Z,16.20
2022-08-02T03:36:13.414Z,16.20
2022-08-02T03:38:42.737Z,16.20
2022-08-02T03:41:12.069Z,16.10
2022-08-02T03:43:41.379Z,16.10
2022-08-02T03:46:13.918Z,16.00
2022-08-02T03:48:43.885Z,16.00
2022-08-02T03:51:12.663Z,16.10
2022-08-02T03:53:41.536Z,16.20
2022-08-02T03:56:11.038Z,16.20
2022-08-02T03:58:39.081Z,16.20
2022-08-02T04:01:07.123Z,16.20
2022-08-02T04:03:35.402Z,16.20
2022-08-02T04:06:05.111Z,16.20
2022-08-02T04:08:37.989Z,16.10
2022-08-02T04:11:24.503Z,16.10
2022-08-02T04:13:56.504Z,16.20
2022-08-02T04:16:33.007Z,16.60
2022-08-02T04:19:04.751Z,17.40
2022-08-02T04:21:49.011Z,18.20
2022-08-02T04:24:24.716Z,18.90
2022-08-02T04:26:54.915Z,19.60
2022-08-02T04:29:27.414Z,20.00
2022-08-02T04:31:58.569Z,20.40
2022-08-02T04:34:27.375Z,20.80
2022-08-02T04:36:57.498Z,20.50
2022-08-02T04:39:25.644Z,19.90
2022-08-02T04:41:57.566Z,19.30
2022-08-02T04:44:26.062Z,18.80
2022-08-02T04:46:54.671Z,18.40
2022-08-02T04:49:25.337Z,18.20
2022-08-02T04:51:53.448Z,18.00
2022-08-02T04:54:22.930Z,18.00
2022-08-02T04:56:51.077Z,17.90
2022-08-02T04:59:21.817Z,17.80
2022-08-02T05:01:50.100Z,17.90
2022-08-02T05:04:21.479Z,18.10
2022-08-02T05:06:49.820Z,18.20
2022-08-02T05:09:17.961Z,18.70
2022-08-02T05:11:54.766Z,19.10
2022-08-02T05:14:23.380Z,19.50
2022-08-02T05:16:51.502Z,19.90
2022-08-02T05:19:19.540Z,20.20
2022-08-02T05:21:47.645Z,20.20
2022-08-02T05:24:15.726Z,20.30
2022-08-02T05:26:43.828Z,20.60
2022-08-02T05:29:13.321Z,20.90
2022-08-02T05:31:41.433Z,21.00
2022-08-02T05:34:11.956Z,21.10
2022-08-02T05:36:40.661Z,21.10
2022-08-02T05:39:12.444Z,20.80
2022-08-02T05:41:47.372Z,20.60
2022-08-02T05:44:16.772Z,20.80
2022-08-02T05:46:44.837Z,21.10
2022-08-02T05:49:18.085Z,21.50
2022-08-02T05:52:01.084Z,21.70
2022-08-02T05:54:42.041Z,21.90
2022-08-02T05:57:18.256Z,22.00
2022-08-02T05:59:58.801Z,21.80
2022-08-02T06:02:30.989Z,21.80
2022-08-02T06:05:05.709Z,21.90
2022-08-02T06:07:36.843Z,22.00
2022-08-02T06:10:06.201Z,21.90
2022-08-02T06:12:41.912Z,21.90
2022-08-02T06:15:15.884Z,21.80
2022-08-02T06:17:45.428Z,21.80
2022-08-02T06:20:15.079Z,21.80
2022-08-02T06:22:44.803Z,21.70
2022-08-02T06:25:49.984Z,21.70
2022-08-02T06:28:04.140Z,21.80
2022-08-02T06:30:40.842Z,21.70
2022-08-02T06:33:12.386Z,21.70
2022-08-02T06:35:46.320Z,21.70
2022-08-02T06:38:20.178Z,21.60
2022-08-02T06:40:54.915Z,21.60
2022-08-02T06:43:35.401Z,21.70
2022-08-02T06:47:08.316Z,21.60
2022-08-02T06:48:58.132Z,21.50
2022-08-02T06:51:28.698Z,21.60
2022-08-02T06:53:56.867Z,21.70
2022-08-02T06:56:25.278Z,21.70
2022-08-02T06:58:53.409Z,21.80
2022-08-02T07:01:22.902Z,21.80
2022-08-02T07:03:53.243Z,21.80
2022-08-02T07:06:21.803Z,21.90
2022-08-02T07:09:11.297Z,22.00
2022-08-02T07:11:37.983Z,22.20
2022-08-02T07:14:06.048Z,22.30
2022-08-02T07:16:35.457Z,22.40
2022-08-02T07:19:05.656Z,22.20
2022-08-02T07:21:57.811Z,22.30
2022-08-02T07:24:22.155Z,22.30
2022-08-02T07:27:10.796Z,22.50
2022-08-02T07:29:45.178Z,22.50
2022-08-02T07:32:16.589Z,22.50
2022-08-02T07:34:51.058Z,22.60
2022-08-02T07:37:35.087Z,22.80
2022-08-02T07:40:14.905Z,22.90
2022-08-02T07:42:48.210Z,22.80
2022-08-02T07:45:16.466Z,22.80
2022-08-02T07:47:46.523Z,23.00
2022-08-02T07:50:16.225Z,23.10
2022-08-02T07:52:46.212Z,23.20
2022-08-02T07:55:15.601Z,23.30
2022-08-02T07:57:46.795Z,23.30
2022-08-02T08:00:18.693Z,23.40
2022-08-02T08:02:48.294Z,23.40
2022-08-02T08:05:16.866Z,23.50
2022-08-02T08:07:44.997Z,23.50
2022-08-02T08:10:13.213Z,23.60
2022-08-02T08:12:41.425Z,23.80
2022-08-02T08:15:10.640Z,23.90
2022-08-02T08:17:39.199Z,24.00
2022-08-02T08:20:14.034Z,24.20
2022-08-02T08:22:43.726Z,24.30
2022-08-02T08:25:11.959Z,24.50
2022-08-02T08:27:48.220Z,24.80
2022-08-02T08:30:16.649Z,25.10
2022-08-02T08:32:47.101Z,25.30
2022-08-02T08:35:16.958Z,25.30
2022-08-02T08:37:45.080Z,25.00
2022-08-02T08:40:19.390Z,24.80
2022-08-02T08:42:47.966Z,24.70
2022-08-02T08:45:17.862Z,24.90
2022-08-02T08:47:47.882Z,25.00
2022-08-02T08:50:25.169Z,25.10
2022-08-02T08:52:58.593Z,25.10
2022-08-02T08:55:28.687Z,25.00
2022-08-02T08:57:58.177Z,25.10
2022-08-02T09:00:26.575Z,25.40
2022-08-02T09:02:54.787Z,25.70
2022-08-02T09:05:25.238Z,26.20
2022-08-02T09:07:54.551Z,26.40
2022-08-02T09:10:40.782Z,26.30
2022-08-02T09:13:39.042Z,26.30
2022-08-02T09:16:11.219Z,26.20
2022-08-02T09:18:43.751Z,26.40
2022-08-02T09:21:13.819Z,26.70
2022-08-02T09:23:46.007Z,26.80
2022-08-02T09:26:18.658Z,26.80
2022-08-02T09:28:50.025Z,26.80
2022-08-02T09:31:19.880Z,26.80
2022-08-02T09:33:52.617Z,26.60
2022-08-02T09:36:23.668Z,26.50
2022-08-02T09:38:57.529Z,26.40
2022-08-02T09:41:27.063Z,26.30
2022-08-02T09:44:04.346Z,26.30
2022-08-02T09:46:37.318Z,26.10
2022-08-02T09:49:08.092Z,26.30
2022-08-02T09:51:39.254Z,26.60
2022-08-02T09:54:09.839Z,26.50
2022-08-02T09:56:46.673Z,26.40
2022-08-02T09:59:15.623Z,26.50
2022-08-02T10:01:50.753Z,26.60
2022-08-02T10:04:26.182Z,26.70
2022-08-02T10:06:55.821Z,26.90
2022-08-02T10:09:24.026Z,27.10
2022-08-02T10:11:54.614Z,27.20
2022-08-02T10:14:23.464Z,27.20
2022-08-02T10:16:54.495Z,27.30
2022-08-02T10:20:00.623Z,27.40
2022-08-02T10:22:15.304Z,27.40
2022-08-02T10:24:48.247Z,27.50
2022-08-02T10:27:19.968Z,27.30
2022-08-02T10:29:55.124Z,27.40
2022-08-02T10:32:28.211Z,27.60
2022-08-02T10:35:18.657Z,27.80
2022-08-02T10:37:54.865Z,27.70
2022-08-02T10:40:26.193Z,27.10
2022-08-02T10:43:00.833Z,27.30
2022-08-02T10:45:29.867Z,27.50
2022-08-02T10:47:59.637Z,27.80
2022-08-02T10:50:54.061Z,28.00
2022-08-02T10:53:28.982Z,28.20
2022-08-02T10:55:58.589Z,28.40
2022-08-02T10:58:30.054Z,28.40
2022-08-02T11:01:00.015Z,28.40
2022-08-02T11:03:42.663Z,28.30
2022-08-02T11:06:25.423Z,28.40
2022-08-02T11:09:33.494Z,28.40
2022-08-02T11:12:04.277Z,28.60
2022-08-02T11:14:35.263Z,28.40
2022-08-02T11:17:09.106Z,28.20
2022-08-02T11:20:15.726Z,28.40
2022-08-02T11:22:47.130Z,28.60
2022-08-02T11:26:02.263Z,28.80
2022-08-02T11:28:25.659Z,29.10
2022-08-02T11:31:02.844Z,29.50
2022-08-02T11:33:36.801Z,29.70
2022-08-02T11:36:07.307Z,30.00
2022-08-02T11:38:35.634Z,30.10
2022-08-02T11:41:10.337Z,30.00
2022-08-02T11:43:39.688Z,29.90
2022-08-02T11:46:14.293Z,30.00
2022-08-02T11:48:44.709Z,29.90
2022-08-02T11:51:14.262Z,29.30
2022-08-02T11:53:48.082Z,29.20
2022-08-02T11:56:24.837Z,29.40
2022-08-02T11:59:03.708Z,29.40
2022-08-02T12:01:36.886Z,29.60
2022-08-02T12:04:16.664Z,29.70
2022-08-02T12:06:45.270Z,30.00
2022-08-02T12:09:18.825Z,30.30
2022-08-02T12:11:51.947Z,30.60
2022-08-02T12:14:20.543Z,30.40
2022-08-02T12:17:07.925Z,30.30
2022-08-02T12:19:37.782Z,30.00
2022-08-02T12:22:11.312Z,29.70
2022-08-02T12:24:41.041Z,29.70
2022-08-02T12:27:13.742Z,29.80
2022-08-02T12:29:58.789Z,29.90
2022-08-02T12:32:27.852Z,29.90
2022-08-02T12:35:04.578Z,29.80
2022-08-02T12:37:35.694Z,29.90
2022-08-02T12:40:20.815Z,29.30
2022-08-02T12:42:57.501Z,29.50
2022-08-02T12:45:26.659Z,29.90
2022-08-02T12:48:05.132Z,30.10
2022-08-02T12:50:37.381Z,30.10
2022-08-02T12:53:08.661Z,30.00
2022-08-02T12:56:01.651Z,30.10
2022-08-02T12:58:30.777Z,30.10
2022-08-02T13:01:00.790Z,30.20
2022-08-02T13:04:07.563Z,30.10
2022-08-02T13:06:43.014Z,29.70
2022-08-02T13:09:15.430Z,29.60
2022-08-02T13:11:44.027Z,29.50
2022-08-02T13:14:14.577Z,29.90
2022-08-02T13:16:46.197Z,30.30
2022-08-02T13:19:16.065Z,30.60
2022-08-02T13:22:11.314Z,30.20
2022-08-02T13:24:40.818Z,29.90
2022-08-02T13:27:23.705Z,29.80
2022-08-02T13:29:54.557Z,30.10
2022-08-02T13:32:23.273Z,30.40
2022-08-02T13:34:51.563Z,30.50
2022-08-02T13:37:19.821Z,30.60
2022-08-02T13:40:11.882Z,30.70
2022-08-02T13:42:36.611Z,30.50
2022-08-02T13:45:13.427Z,30.20
2022-08-02T13:47:57.505Z,30.10
2022-08-02T13:50:33.748Z,30.20
2022-08-02T13:53:04.472Z,30.40
2022-08-02T13:55:32.608Z,30.50
2022-08-02T13:58:00.836Z,30.30
2022-08-02T14:00:35.207Z,30.30
2022-08-02T14:03:08.087Z,30.20
2022-08-02T14:05:47.443Z,30.00
2022-08-02T14:08:19.053Z,30.00
2022-08-02T14:10:48.057Z,29.80
2022-08-02T14:13:16.551Z,29.80
2022-08-02T14:15:46.427Z,30.00
2022-08-02T14:18:15.362Z,30.10
2022-08-02T14:20:44.458Z,30.10
2022-08-02T14:23:12.587Z,30.00
2022-08-02T14:25:40.889Z,29.70
2022-08-02T14:28:09.336Z,29.60
2022-08-02T14:30:37.453Z,29.90
2022-08-02T14:33:07.025Z,30.10
2022-08-02T14:35:35.311Z,30.20
2022-08-02T14:38:03.473Z,30.00
2022-08-02T14:40:32.232Z,29.90
2022-08-02T14:43:01.131Z,29.60
2022-08-02T14:45:39.764Z,29.60
2022-08-02T14:48:12.130Z,29.70
2022-08-02T14:50:40.761Z,29.70
2022-08-02T14:53:12.526Z,29.70
2022-08-02T14:55:42.005Z,29.80
2022-08-02T14:58:10.401Z,29.80
2022-08-02T15:00:40.924Z,29.90
2022-08-02T15:03:11.463Z,29.80
2022-08-02T15:05:39.666Z,29.50
2022-08-02T15:08:08.249Z,29.70
2022-08-02T15:10:36.499Z,30.00
2022-08-02T15:13:05.106Z,30.20
2022-08-02T15:15:43.147Z,30.10
2022-08-02T15:18:14.248Z,29.90
2022-08-02T15:20:53.456Z,29.80
2022-08-02T15:23:37.139Z,29.70
2022-08-02T15:26:06.347Z,29.90
2022-08-02T15:28:35.007Z,30.00
2022-08-02T15:31:03.214Z,30.00
2022-08-02T15:33:32.782Z,29.90
2022-08-02T15:36:00.968Z,29.80
2022-08-02T15:38:29.172Z,29.90
2022-08-02T15:40:57.326Z,30.00
2022-08-02T15:43:25.748Z,30.20
2022-08-02T15:45:54.371Z,30.40
2022-08-02T15:48:22.908Z,30.50
2022-08-02T15:50:52.425Z,30.30
2022-08-02T15:53:20.519Z,30.20
2022-08-02T15:56:04.192Z,30.10
2022-08-02T15:58:33.381Z,30.00
2022-08-02T16:01:08.945Z,30.00
2022-08-02T16:03:37.120Z,30.00
2022-08-02T16:06:06.649Z,30.00
2022-08-02T16:08:35.119Z,29.90
2022-08-02T16:11:03.329Z,29.90
2022-08-02T16:13:53.677Z,29.80
2022-08-02T16:16:23.406Z,29.70
2022-08-02T16:18:51.661Z,29.70
2022-08-02T16:21:22.789Z,29.80
2022-08-02T16:24:01.932Z,29.80
2022-08-02T16:26:33.133Z,29.70
2022-08-02T16:29:07.858Z,29.50
2022-08-02T16:31:42.544Z,29.40
2022-08-02T16:34:13.900Z,29.30
2022-08-02T16:36:43.931Z,29.30
2022-08-02T16:39:12.291Z,29.30
2022-08-02T16:41:50.489Z,29.50
2022-08-02T16:44:29.064Z,29.50
2022-08-02T16:47:01.058Z,29.70
2022-08-02T16:50:04.698Z,29.90
2022-08-02T16:52:19.981Z,30.00
2022-08-02T16:54:50.579Z,30.00
2022-08-02T16:57:19.826Z,30.00
2022-08-02T16:59:57.453Z,30.10
2022-08-02T17:02:27.754Z,30.00
2022-08-02T17:04:58.550Z,30.00
2022-08-02T17:08:07.163Z,30.00
2022-08-02T17:10:18.612Z,29.90
2022-08-02T17:12:51.213Z,29.70
2022-08-02T17:16:08.516Z,29.60
2022-08-02T17:18:08.855Z,29.50
2022-08-02T17:20:37.616Z,29.30
2022-08-02T17:23:08.787Z,29.10
2022-08-02T17:25:44.407Z,28.90
2022-08-02T17:28:20.658Z,28.80
2022-08-02T17:30:59.730Z,28.80
2022-08-02T17:33:28.757Z,28.70
2022-08-02T17:35:57.080Z,28.70
2022-08-02T17:38:27.346Z,28.60
2022-08-02T17:40:58.770Z,28.40
2022-08-02T17:46:15.193Z,28.30
2022-08-02T17:49:02.131Z,28.30
2022-08-02T17:52:15.466Z,28.20
2022-08-02T17:54:21.903Z,28.10
2022-08-02T17:56:51.523Z,28.00
2022-08-02T17:59:22.356Z,28.00
2022-08-02T18:02:03.736Z,27.90
2022-08-02T18:04:33.281Z,27.90
2022-08-02T18:07:04.146Z,28.00
2022-08-02T18:09:34.681Z,28.00
2022-08-02T18:12:03.066Z,28.10
2022-08-02T18:14:31.379Z,28.10
2022-08-02T18:16:59.461Z,28.20
2022-08-02T18:19:33.105Z,28.20
2022-08-02T18:22:13.762Z,28.20
2022-08-02T18:24:44.926Z,28.10
2022-08-02T18:27:14.050Z,28.00
2022-08-02T18:29:42.231Z,27.90
2022-08-02T18:32:10.450Z,27.70
2022-08-02T18:34:40.096Z,27.70
2022-08-02T18:37:08.451Z,27.50
2022-08-02T18:39:38.380Z,27.30
2022-08-02T18:42:08.400Z,27.20
2022-08-02T18:44:38.887Z,27.10
2022-08-02T18:47:07.682Z,27.00
2022-08-02T18:49:45.977Z,26.90
2022-08-02T18:52:15.805Z,26.80
2022-08-02T18:54:59.411Z,26.70
2022-08-02T18:58:02.106Z,26.60
2022-08-02T19:00:20.685Z,26.50
2022-08-02T19:02:54.142Z,26.40
2022-08-02T19:05:24.085Z,26.30
2022-08-02T19:08:12.813Z,26.30
2022-08-02T19:10:49.187Z,26.20
2022-08-02T19:13:19.751Z,26.10
2022-08-02T19:15:48.500Z,26.00
2022-08-02T19:18:16.540Z,25.80
2022-08-02T19:20:48.545Z,25.70
2022-08-02T19:23:21.542Z,25.60
2022-08-02T19:25:54.773Z,25.50
2022-08-02T19:28:26.190Z,25.40
2022-08-02T19:30:54.950Z,25.30
2022-08-02T19:33:54.985Z,25.20
2022-08-02T19:36:11.788Z,25.10
2022-08-02T19:38:44.004Z,25.00
2022-08-02T19:41:14.706Z,25.00
2022-08-02T19:44:26.159Z,25.00
2022-08-02T19:46:41.639Z,25.00
2022-08-02T19:52:22.235Z,24.80
2022-08-02T19:54:54.396Z,24.80
2022-08-02T19:57:25.417Z,24.80
2022-08-02T19:59:55.237Z,24.60
2022-08-02T20:02:23.355Z,24.60
2022-08-02T20:04:52.923Z,24.40
2022-08-02T20:07:54.902Z,24.30
2022-08-02T20:10:14.193Z,24.10
2022-08-02T20:12:53.541Z,24.00
2022-08-02T20:15:23.785Z,23.90
2022-08-02T20:18:14.827Z,23.90
2022-08-02T20:20:56.949Z,23.90
2022-08-02T20:23:33.188Z,23.90
2022-08-02T20:26:02.469Z,23.90
2022-08-02T20:28:31.964Z,23.90
2022-08-02T20:31:07.074Z,23.80
2022-08-02T20:33:37.057Z,23.80
2022-08-02T20:36:24.509Z,23.70
2022-08-02T20:38:52.566Z,23.70
2022-08-02T20:41:37.008Z,23.60
2022-08-02T20:44:15.464Z,23.60
2022-08-02T20:46:59.502Z,23.50
2022-08-02T20:49:41.288Z,23.50
2022-08-02T20:52:24.049Z,23.50
2022-08-02T20:54:53.780Z,23.50
2022-08-02T20:57:49.081Z,23.40
2022-08-02T21:00:13.708Z,23.30
2022-08-02T21:02:43.241Z,23.10
2022-08-02T21:05:17.219Z,23.00
2022-08-02T21:07:47.764Z,22.90
2022-08-02T21:10:16.495Z,22.90
2022-08-02T21:12:45.389Z,22.80
2022-08-02T21:15:13.986Z,22.70
2022-08-02T21:17:50.996Z,22.70
2022-08-02T21:20:29.463Z,22.60
2022-08-02T21:22:58.196Z,22.50
2022-08-02T21:25:42.411Z,22.50
2022-08-02T21:28:17.514Z,22.40
2022-08-02T21:30:46.203Z,22.30
2022-08-02T21:33:23.231Z,22.10
2022-08-02T21:36:03.782Z,22.10
2022-08-02T21:38:35.266Z,22.00
2022-08-02T21:41:06.002Z,22.00
2022-08-02T21:43:40.242Z,22.00
2022-08-02T21:46:14.637Z,22.00
2022-08-02T21:48:44.496Z,21.90
2022-08-02T21:51:15.839Z,21.90
2022-08-02T21:54:18.750Z,21.90
2022-08-02T21:56:32.602Z,21.80
2022-08-02T21:59:13.558Z,21.70
2022-08-02T22:01:52.781Z,21.60
2022-08-02T22:04:34.069Z,21.60
2022-08-02T22:07:04.568Z,21.50
2022-08-02T22:09:43.287Z,21.50
2022-08-02T22:12:18.333Z,21.40
2022-08-02T22:14:54.263Z,21.30
2022-08-02T22:17:51.812Z,21.20
2022-08-02T22:20:29.173Z,21.10
2022-08-02T22:22:59.946Z,21.00
2022-08-02T22:25:36.650Z,20.90
2022-08-02T22:28:34.845Z,20.90
2022-08-02T22:30:56.973Z,20.80
2022-08-02T22:33:47.101Z,20.70
2022-08-02T22:36:30.644Z,20.70
2022-08-02T22:38:59.403Z,20.60
2022-08-02T22:42:01.569Z,20.60
2022-08-02T22:44:18.542Z,20.50
2022-08-02T22:46:49.722Z,20.40
2022-08-02T22:49:38.996Z,20.30
2022-08-02T22:52:09.653Z,20.30
2022-08-02T22:54:38.883Z,20.20
2022-08-02T22:57:11.234Z,20.20
2022-08-02T22:58:39.901Z,28.40
2022-08-02T22:59:05.254Z,24.90
2022-08-02T22:59:40.861Z,20.10
2022-08-02T23:02:09.646Z,20.10
2022-08-02T23:04:38.352Z,20.10
2022-08-02T23:07:11.178Z,20.10
2022-08-02T23:09:45.598Z,20.00
2022-08-02T23:12:23.398Z,19.90
2022-08-02T23:14:57.497Z,19.80
2022-08-02T23:17:46.668Z,19.80
2022-08-02T23:20:19.968Z,19.60
2022-08-02T23:23:00.911Z,19.60
2022-08-02T23:25:33.744Z,19.50
2022-08-02T23:28:09.102Z,19.40
2022-08-02T23:30:41.591Z,19.40
2022-08-02T23:33:28.532Z,19.30
2022-08-02T23:36:00.267Z,19.30
2022-08-02T23:38:30.572Z,19.20
2022-08-02T23:40:58.854Z,19.20
2022-08-02T23:43:27.818Z,19.20
2022-08-02T23:46:03.879Z,19.10
2022-08-02T23:48:33.216Z,19.10
2022-08-02T23:51:04.359Z,19.10
2022-08-02T23:53:34.650Z,19.10
2022-08-02T23:56:07.113Z,19.10
2022-08-02T23:58:35.713Z,19.10
